SLAS/ASC METAR and TAF weather

Enter ICAO airport designator
Station Type Date Time Source
SLAS METAR 2020/03/16 18:00 UTC NOAA

SLAS 161800Z 19005KT 9999 SCT013 OVC200 27/24 Q1013


Station Type Date Time Source
SLAS Decoded METAR 2020/03/16 18:00 UTC NOAA

Ascencion De Guarayos, Bolivia (SLAS) 15-43S 063-06W
Mar 16, 2020 - 02:00 PM EDT / 2020.03.16 1800 UTC
Wind: from the S (190 degrees) at 6 MPH (5 KT):0
Visibility: greater than 7 mile(s):0
Sky conditions: overcast
Temperature: 80 F (27 C)
Dew Point: 75 F (24 C)
Relative Humidity: 83%
Pressure (altimeter): 29.91 in. Hg (1013 hPa)
ob: SLAS 161800Z 19005KT 9999 SCT013 OVC200 27/24 Q1013
cycle: 18

Station Type Date Time Source
SLAS TAF UTC NOAA

Error!

Example: see airport list